createdAt,value
2022-11-27T00:01:29.975Z,5.20
2022-11-27T00:03:57.467Z,5.20
2022-11-27T00:06:26.308Z,5.20
2022-11-27T00:08:53.173Z,5.20
2022-11-27T00:11:22.428Z,5.20
2022-11-27T00:13:50.452Z,5.00
2022-11-27T00:16:18.091Z,5.20
2022-11-27T00:18:45.071Z,5.00
2022-11-27T00:21:24.123Z,5.10
2022-11-27T00:23:52.243Z,5.00
2022-11-27T00:26:19.379Z,5.10
2022-11-27T00:28:46.073Z,5.20
2022-11-27T00:31:16.219Z,5.30
2022-11-27T00:33:43.654Z,5.40
2022-11-27T00:36:11.577Z,5.50
2022-11-27T00:38:41.193Z,5.50
2022-11-27T00:41:09.413Z,5.50
2022-11-27T00:43:43.965Z,5.50
2022-11-27T00:46:13.420Z,5.50
2022-11-27T00:48:40.443Z,5.50
2022-11-27T00:51:08.808Z,5.50
2022-11-27T00:53:35.867Z,5.50
2022-11-27T00:56:02.847Z,5.50
2022-11-27T00:58:30.586Z,5.60
2022-11-27T01:00:59.517Z,5.50
2022-11-27T01:03:27.421Z,5.60
2022-11-27T01:05:54.557Z,5.60
2022-11-27T01:08:22.253Z,5.50
2022-11-27T01:10:55.055Z,5.50
2022-11-27T01:13:29.918Z,5.60
2022-11-27T01:16:17.996Z,5.60
2022-11-27T01:18:46.805Z,5.80
2022-11-27T01:21:15.596Z,5.80
2022-11-27T01:23:42.315Z,5.80
2022-11-27T01:26:10.652Z,5.80
2022-11-27T01:28:39.562Z,5.80
2022-11-27T01:31:09.047Z,5.90
2022-11-27T01:33:35.807Z,5.90
2022-11-27T01:36:06.978Z,5.90
2022-11-27T01:38:34.222Z,5.80
2022-11-27T01:41:12.853Z,5.80
2022-11-27T01:43:42.000Z,5.60
2022-11-27T01:46:37.490Z,5.60
2022-11-27T01:49:10.392Z,5.60
2022-11-27T01:51:48.670Z,5.60
2022-11-27T01:54:17.004Z,5.60
2022-11-27T01:56:46.231Z,5.40
2022-11-27T01:59:13.317Z,5.50
2022-11-27T02:01:40.024Z,5.60
2022-11-27T02:04:06.708Z,5.60
2022-11-27T02:06:33.453Z,5.50
2022-11-27T02:09:00.092Z,5.60
2022-11-27T02:11:57.668Z,5.70
2022-11-27T02:14:48.504Z,5.80
2022-11-27T02:17:36.489Z,5.90
2022-11-27T02:20:24.763Z,5.90
2022-11-27T02:23:16.071Z,6.00
2022-11-27T02:26:03.285Z,5.90
2022-11-27T02:28:41.211Z,5.80
2022-11-27T02:31:23.685Z,5.60
2022-11-27T02:33:55.694Z,5.50
2022-11-27T02:36:31.454Z,5.60
2022-11-27T02:39:04.362Z,5.70
2022-11-27T02:41:40.775Z,5.70
2022-11-27T02:44:09.246Z,5.80
2022-11-27T02:46:37.287Z,5.70
2022-11-27T02:49:09.561Z,5.80
2022-11-27T02:51:41.549Z,5.80
2022-11-27T02:54:13.479Z,5.80
2022-11-27T02:56:42.179Z,5.80
2022-11-27T02:59:12.486Z,5.80
2022-11-27T03:01:43.595Z,5.80
2022-11-27T03:04:15.316Z,5.70
2022-11-27T03:06:47.272Z,5.80
2022-11-27T03:09:18.787Z,5.80
2022-11-27T03:11:46.092Z,5.70
2022-11-27T03:14:14.002Z,5.60
2022-11-27T03:16:50.842Z,5.50
2022-11-27T03:19:26.747Z,5.60
2022-11-27T03:21:57.276Z,5.50
2022-11-27T03:24:24.784Z,5.30
2022-11-27T03:26:52.001Z,5.50
2022-11-27T03:29:49.453Z,5.50
2022-11-27T03:32:17.285Z,5.60
2022-11-27T03:34:44.320Z,5.70
2022-11-27T03:37:11.031Z,5.70
2022-11-27T03:39:37.824Z,5.70
2022-11-27T03:42:33.351Z,5.70
2022-11-27T03:45:22.714Z,5.50
2022-11-27T03:48:13.977Z,5.60
2022-11-27T03:51:07.274Z,5.50
2022-11-27T03:53:40.480Z,5.50
2022-11-27T03:56:18.421Z,5.50
2022-11-27T03:59:15.317Z,5.50
2022-11-27T04:01:42.081Z,5.50
2022-11-27T04:04:09.042Z,5.50
2022-11-27T04:06:35.897Z,5.40
2022-11-27T04:09:02.798Z,5.40
2022-11-27T04:11:29.443Z,5.40
2022-11-27T04:13:56.202Z,5.30
2022-11-27T04:16:23.147Z,5.30
2022-11-27T04:18:49.875Z,5.30
2022-11-27T04:21:17.038Z,5.40
2022-11-27T04:23:44.317Z,5.50
2022-11-27T04:26:11.410Z,5.50
2022-11-27T04:28:38.327Z,5.50
2022-11-27T04:31:05.224Z,5.40
2022-11-27T04:33:32.053Z,5.40
2022-11-27T04:35:58.716Z,5.40
2022-11-27T04:38:25.406Z,5.40
2022-11-27T04:40:53.440Z,5.40
2022-11-27T04:43:20.699Z,5.30
2022-11-27T04:45:47.356Z,5.30
2022-11-27T04:48:14.057Z,5.30
2022-11-27T04:50:40.724Z,5.30
2022-11-27T04:53:07.507Z,5.30
2022-11-27T04:55:35.400Z,5.20
2022-11-27T04:58:02.105Z,5.30
2022-11-27T05:00:28.791Z,5.10
2022-11-27T05:02:55.610Z,5.20
2022-11-27T05:05:22.354Z,5.20
2022-11-27T05:07:49.190Z,5.10
2022-11-27T05:10:15.991Z,5.10
2022-11-27T05:12:42.641Z,5.20
2022-11-27T05:15:09.635Z,5.10
2022-11-27T05:17:36.296Z,5.10
2022-11-27T05:20:03.742Z,5.00
2022-11-27T05:22:30.431Z,5.00
2022-11-27T05:24:57.110Z,5.00
2022-11-27T05:27:23.781Z,5.00
2022-11-27T05:29:50.513Z,4.90
2022-11-27T05:32:17.271Z,5.10
2022-11-27T05:34:43.918Z,5.20
2022-11-27T05:37:16.475Z,5.20
2022-11-27T05:39:46.043Z,5.20
2022-11-27T05:42:12.704Z,5.20
2022-11-27T05:44:39.677Z,5.20
2022-11-27T05:47:06.646Z,5.10
2022-11-27T05:49:33.440Z,5.00
2022-11-27T05:52:00.112Z,5.00
2022-11-27T05:54:26.819Z,4.90
2022-11-27T05:56:53.465Z,4.90
2022-11-27T05:59:20.151Z,5.00
2022-11-27T06:01:49.174Z,4.90
2022-11-27T06:04:15.889Z,5.00
2022-11-27T06:06:42.552Z,5.00
2022-11-27T06:09:12.854Z,5.10
2022-11-27T06:11:40.181Z,5.20
2022-11-27T06:14:10.971Z,5.20
2022-11-27T06:16:38.182Z,5.20
2022-11-27T06:19:04.901Z,5.10
2022-11-27T06:21:31.598Z,5.10
2022-11-27T06:23:58.386Z,5.00
2022-11-27T06:26:27.569Z,4.90
2022-11-27T06:28:55.788Z,4.90
2022-11-27T06:31:25.378Z,4.90
2022-11-27T06:33:54.063Z,4.90
2022-11-27T06:36:22.723Z,4.90
2022-11-27T06:38:49.757Z,4.80
2022-11-27T06:41:19.517Z,4.90
2022-11-27T06:43:46.468Z,4.80
2022-11-27T06:46:16.599Z,4.90
2022-11-27T06:48:45.120Z,5.00
2022-11-27T06:51:14.738Z,5.00
2022-11-27T06:53:41.960Z,4.90
2022-11-27T06:56:11.629Z,4.80
2022-11-27T06:58:39.089Z,4.80
2022-11-27T07:01:11.369Z,4.70
2022-11-27T07:03:38.173Z,4.80
2022-11-27T07:06:06.511Z,4.80
2022-11-27T07:08:34.183Z,4.90
2022-11-27T07:11:06.803Z,4.80
2022-11-27T07:13:33.879Z,4.80
2022-11-27T07:16:01.965Z,4.80
2022-11-27T07:18:30.150Z,4.80
2022-11-27T07:20:57.104Z,4.90
2022-11-27T07:23:23.852Z,5.00
2022-11-27T07:25:50.500Z,5.10
2022-11-27T07:28:19.037Z,5.20
2022-11-27T07:30:46.176Z,5.20
2022-11-27T07:33:12.873Z,5.30
2022-11-27T07:35:39.549Z,5.30
2022-11-27T07:38:06.225Z,5.20
2022-11-27T07:40:32.871Z,5.10
2022-11-27T07:42:59.562Z,5.20
2022-11-27T07:45:26.236Z,5.20
2022-11-27T07:47:52.917Z,5.30
2022-11-27T07:50:19.608Z,5.30
2022-11-27T07:52:46.398Z,5.30
2022-11-27T07:55:13.267Z,5.40
2022-11-27T07:57:39.916Z,5.40
2022-11-27T08:00:07.237Z,5.40
2022-11-27T08:02:34.142Z,5.30
2022-11-27T08:05:00.862Z,5.30
2022-11-27T08:07:28.939Z,5.30
2022-11-27T08:09:58.155Z,5.30
2022-11-27T08:12:25.366Z,5.30
2022-11-27T08:14:52.153Z,5.30
2022-11-27T08:17:19.930Z,5.40
2022-11-27T08:19:46.608Z,5.40
2022-11-27T08:22:14.611Z,5.50
2022-11-27T08:24:42.558Z,5.60
2022-11-27T08:27:10.467Z,5.50
2022-11-27T08:29:37.831Z,5.60
2022-11-27T08:32:05.704Z,5.70
2022-11-27T08:34:33.032Z,5.80
2022-11-27T08:36:59.672Z,5.80
2022-11-27T08:39:27.020Z,5.90
2022-11-27T08:41:54.269Z,5.90
2022-11-27T08:44:21.091Z,6.00
2022-11-27T08:46:47.925Z,6.00
2022-11-27T08:49:14.681Z,6.00
2022-11-27T08:51:41.528Z,6.00
2022-11-27T08:54:08.259Z,6.10
2022-11-27T08:56:36.054Z,6.00
2022-11-27T08:59:03.548Z,6.10
2022-11-27T09:01:32.134Z,6.00
2022-11-27T09:03:59.388Z,5.90
2022-11-27T09:06:28.893Z,5.90
2022-11-27T09:08:58.939Z,5.80
2022-11-27T09:11:26.531Z,5.90
2022-11-27T09:13:53.304Z,6.00
2022-11-27T09:16:22.182Z,6.00
2022-11-27T09:18:50.811Z,6.20
2022-11-27T09:21:19.084Z,6.30
2022-11-27T09:23:46.240Z,6.20
2022-11-27T09:26:15.139Z,6.20
2022-11-27T09:28:43.001Z,6.50
2022-11-27T09:31:12.448Z,6.70
2022-11-27T09:33:40.810Z,6.70
2022-11-27T09:36:09.808Z,6.90
2022-11-27T09:38:37.311Z,7.00
2022-11-27T09:41:15.730Z,6.80
2022-11-27T09:43:49.159Z,6.80
2022-11-27T09:46:26.278Z,6.70
2022-11-27T09:48:54.695Z,6.80
2022-11-27T09:51:29.123Z,7.00
2022-11-27T09:54:04.421Z,7.20
2022-11-27T09:56:34.931Z,7.30
2022-11-27T09:59:03.617Z,7.30
2022-11-27T10:01:42.922Z,7.10
2022-11-27T10:04:16.304Z,6.90
2022-11-27T10:06:45.783Z,7.10
2022-11-27T10:09:33.004Z,7.20
2022-11-27T10:12:16.651Z,7.60
2022-11-27T10:15:14.453Z,7.80
2022-11-27T10:17:52.177Z,7.90
2022-11-27T10:20:30.960Z,7.70
2022-11-27T10:23:02.047Z,7.50
2022-11-27T10:25:30.022Z,7.80
2022-11-27T10:28:04.707Z,8.00
2022-11-27T10:30:37.304Z,8.10
2022-11-27T10:33:12.729Z,8.20
2022-11-27T10:35:47.816Z,8.20
2022-11-27T10:38:21.471Z,8.40
2022-11-27T10:41:41.961Z,8.50
2022-11-27T10:44:28.326Z,8.70
2022-11-27T10:47:01.549Z,8.70
2022-11-27T10:49:28.203Z,8.80
2022-11-27T10:51:55.006Z,8.90
2022-11-27T10:54:34.134Z,8.90
2022-11-27T10:57:19.251Z,8.80
2022-11-27T10:59:56.030Z,8.90
2022-11-27T11:02:29.614Z,9.10
2022-11-27T11:05:23.917Z,9.10
2022-11-27T11:07:43.158Z,9.10
2022-11-27T11:10:30.209Z,8.80
2022-11-27T11:13:27.860Z,8.80
2022-11-27T11:15:58.060Z,8.80
2022-11-27T11:18:30.363Z,8.90
2022-11-27T11:21:00.084Z,8.90
2022-11-27T11:23:36.068Z,8.80
2022-11-27T11:26:23.176Z,9.10
2022-11-27T11:28:59.364Z,9.30
2022-11-27T11:31:34.164Z,9.40
2022-11-27T11:34:04.992Z,9.40
2022-11-27T11:36:32.066Z,9.30
2022-11-27T11:38:59.352Z,9.40
2022-11-27T11:41:37.387Z,9.60
2022-11-27T11:44:04.624Z,9.70
2022-11-27T11:46:33.757Z,9.80
2022-11-27T11:49:24.325Z,9.90
2022-11-27T11:52:21.038Z,10.00
2022-11-27T11:54:49.723Z,9.90
2022-11-27T11:57:53.953Z,9.90
2022-11-27T12:00:38.715Z,9.80
2022-11-27T12:03:33.986Z,9.70
2022-11-27T12:06:06.875Z,9.50
2022-11-27T12:08:56.596Z,9.50
2022-11-27T12:11:27.863Z,9.40
2022-11-27T12:14:14.229Z,9.40
2022-11-27T12:17:07.066Z,9.10
2022-11-27T12:19:55.064Z,9.10
2022-11-27T12:22:38.021Z,9.20
2022-11-27T12:25:20.946Z,9.10
2022-11-27T12:28:15.375Z,9.10
2022-11-27T12:31:03.365Z,9.10
2022-11-27T12:33:48.743Z,9.20
2022-11-27T12:36:49.599Z,9.30
2022-11-27T12:39:25.739Z,9.40
2022-11-27T12:42:01.748Z,8.70
2022-11-27T12:44:56.298Z,8.70
2022-11-27T12:47:40.168Z,8.90
2022-11-27T12:50:23.815Z,8.80
2022-11-27T12:53:16.783Z,8.70
2022-11-27T12:55:58.678Z,8.80
2022-11-27T12:58:39.721Z,8.90
2022-11-27T13:01:13.763Z,9.00
2022-11-27T13:03:52.665Z,9.00
2022-11-27T13:06:24.677Z,9.10
2022-11-27T13:09:16.628Z,9.10
2022-11-27T13:11:44.069Z,9.20
2022-11-27T13:14:12.511Z,9.00
2022-11-27T13:16:45.666Z,9.00
2022-11-27T13:19:35.302Z,9.00
2022-11-27T13:22:09.223Z,8.90
2022-11-27T13:24:36.168Z,8.90
2022-11-27T13:27:05.576Z,8.90
2022-11-27T13:29:46.016Z,9.00
2022-11-27T13:32:22.654Z,9.00
2022-11-27T13:34:51.497Z,9.00
2022-11-27T13:37:34.935Z,8.80
2022-11-27T13:40:01.594Z,8.50
2022-11-27T13:42:29.218Z,8.50
2022-11-27T13:45:20.783Z,8.70
2022-11-27T13:47:48.149Z,8.80
2022-11-27T13:50:18.805Z,8.80
2022-11-27T13:53:00.038Z,8.90
2022-11-27T13:55:30.477Z,8.90
2022-11-27T13:57:59.467Z,8.90
2022-11-27T14:00:44.341Z,9.00
2022-11-27T14:03:40.345Z,9.10
2022-11-27T14:06:22.082Z,9.00
2022-11-27T14:08:57.510Z,9.10
2022-11-27T14:11:39.829Z,9.10
2022-11-27T14:14:20.039Z,9.00
2022-11-27T14:17:04.244Z,8.90
2022-11-27T14:19:44.700Z,9.00
2022-11-27T14:25:37.721Z,9.00
2022-11-27T14:28:24.782Z,9.00
2022-11-27T14:30:59.695Z,9.00
2022-11-27T14:33:47.535Z,9.00
2022-11-27T14:36:26.550Z,9.10
2022-11-27T14:38:53.397Z,9.20
2022-11-27T14:41:23.479Z,9.10
2022-11-27T14:44:03.614Z,9.00
2022-11-27T14:46:32.727Z,8.80
2022-11-27T14:48:59.591Z,8.70
2022-11-27T14:51:28.736Z,8.70
2022-11-27T14:54:01.750Z,8.70
2022-11-27T14:56:33.088Z,8.60
2022-11-27T14:59:00.750Z,8.50
2022-11-27T15:01:35.285Z,8.40
2022-11-27T15:04:05.816Z,8.50
2022-11-27T15:06:45.151Z,8.30
2022-11-27T15:09:35.364Z,8.30
2022-11-27T15:12:16.885Z,8.30
2022-11-27T15:14:55.359Z,8.30
2022-11-27T15:17:30.477Z,8.30
2022-11-27T15:19:58.111Z,8.30
2022-11-27T15:22:24.873Z,8.10
2022-11-27T15:25:06.399Z,8.30
2022-11-27T15:27:45.424Z,8.20
2022-11-27T15:30:18.953Z,8.10
2022-11-27T15:32:53.695Z,8.10
2022-11-27T15:35:29.758Z,8.10
2022-11-27T15:37:58.052Z,8.00
2022-11-27T15:40:36.121Z,8.00
2022-11-27T15:43:10.415Z,8.20
2022-11-27T15:45:37.316Z,8.20
2022-11-27T15:48:04.149Z,8.10
2022-11-27T15:50:31.328Z,8.10
2022-11-27T15:52:58.138Z,8.20
2022-11-27T15:55:25.047Z,8.10
2022-11-27T15:57:51.702Z,8.10
2022-11-27T16:00:19.124Z,8.10
2022-11-27T16:02:45.847Z,8.00
2022-11-27T16:05:12.844Z,8.00
2022-11-27T16:07:39.663Z,7.90
2022-11-27T16:10:06.951Z,7.90
2022-11-27T16:12:33.741Z,7.90
2022-11-27T16:15:00.387Z,8.00
2022-11-27T16:17:27.232Z,7.90
2022-11-27T16:19:53.893Z,8.00
2022-11-27T16:22:20.557Z,7.90
2022-11-27T16:24:47.205Z,7.90
2022-11-27T16:27:13.908Z,7.90
2022-11-27T16:29:40.785Z,7.90
2022-11-27T16:32:08.489Z,7.80
2022-11-27T16:34:35.523Z,7.80
2022-11-27T16:37:03.179Z,7.80
2022-11-27T16:39:29.916Z,7.90
2022-11-27T16:41:56.883Z,7.90
2022-11-27T16:44:23.545Z,7.80
2022-11-27T16:46:51.199Z,7.80
2022-11-27T16:49:17.872Z,7.80
2022-11-27T16:51:44.909Z,7.80
2022-11-27T16:54:13.336Z,7.80
2022-11-27T16:56:42.454Z,7.70
2022-11-27T16:59:11.265Z,7.60
2022-11-27T17:01:40.845Z,7.60
2022-11-27T17:04:11.370Z,7.60
2022-11-27T17:06:39.178Z,7.50
2022-11-27T17:09:07.795Z,7.60
2022-11-27T17:11:36.310Z,7.60
2022-11-27T17:14:08.059Z,7.60
2022-11-27T17:16:36.203Z,7.60
2022-11-27T17:19:04.038Z,7.60
2022-11-27T17:21:33.668Z,7.60
2022-11-27T17:24:02.701Z,7.60
2022-11-27T17:26:35.618Z,7.60
2022-11-27T17:29:03.428Z,7.60
2022-11-27T17:31:33.545Z,7.60
2022-11-27T17:34:01.270Z,7.60
2022-11-27T17:36:35.218Z,7.60
2022-11-27T17:39:05.981Z,7.60
2022-11-27T17:41:33.564Z,7.50
2022-11-27T17:44:00.483Z,7.50
2022-11-27T17:46:28.826Z,7.60
2022-11-27T17:48:59.116Z,7.50
2022-11-27T17:51:27.097Z,7.50
2022-11-27T17:53:53.889Z,7.50
2022-11-27T17:56:21.112Z,7.60
2022-11-27T17:58:49.079Z,7.60
2022-11-27T18:01:19.302Z,7.50
2022-11-27T18:03:46.620Z,7.50
2022-11-27T18:06:16.604Z,7.60
2022-11-27T18:08:44.004Z,7.60
2022-11-27T18:11:17.223Z,7.60
2022-11-27T18:13:44.337Z,7.60
2022-11-27T18:16:14.084Z,7.70
2022-11-27T18:18:41.469Z,7.70
2022-11-27T18:21:15.274Z,7.70
2022-11-27T18:24:14.580Z,7.70
2022-11-27T18:26:52.603Z,7.70
2022-11-27T18:29:18.613Z,7.70
2022-11-27T18:31:46.694Z,7.70
2022-11-27T18:34:13.389Z,7.70
2022-11-27T18:36:40.091Z,7.70
2022-11-27T18:39:06.738Z,7.70
2022-11-27T18:41:33.445Z,7.70
2022-11-27T18:44:00.177Z,7.70
2022-11-27T18:46:27.161Z,7.80
2022-11-27T18:48:53.937Z,7.80
2022-11-27T18:51:25.271Z,7.70
2022-11-27T18:53:52.556Z,7.60
2022-11-27T18:56:23.050Z,7.60
2022-11-27T18:58:50.694Z,7.70
2022-11-27T19:01:23.650Z,7.50
2022-11-27T19:03:50.893Z,7.50
2022-11-27T19:06:20.040Z,7.40
2022-11-27T19:08:48.329Z,7.50
2022-11-27T19:11:17.623Z,7.50
2022-11-27T19:13:45.526Z,7.40
2022-11-27T19:16:24.434Z,7.50
2022-11-27T19:18:51.212Z,7.50
2022-11-27T19:21:20.991Z,7.50
2022-11-27T19:23:48.632Z,7.50
2022-11-27T19:26:24.365Z,7.50
2022-11-27T19:28:52.900Z,7.60
2022-11-27T19:31:20.153Z,7.60
2022-11-27T19:33:58.959Z,7.50
2022-11-27T19:36:26.194Z,7.60
2022-11-27T19:39:02.190Z,7.60
2022-11-27T19:41:30.423Z,7.60
2022-11-27T19:44:01.623Z,7.70
2022-11-27T19:46:31.506Z,7.60
2022-11-27T19:49:00.519Z,7.60
2022-11-27T19:51:28.577Z,7.70
2022-11-27T19:53:55.872Z,7.50
2022-11-27T19:56:26.935Z,7.50
2022-11-27T19:58:53.998Z,7.50
2022-11-27T20:01:20.878Z,7.40
2022-11-27T20:03:48.319Z,7.40
2022-11-27T20:06:18.095Z,7.50
2022-11-27T20:08:47.403Z,7.50
2022-11-27T20:11:20.916Z,7.50
2022-11-27T20:13:48.247Z,7.60
2022-11-27T20:16:19.826Z,7.60
2022-11-27T20:18:47.610Z,7.60
2022-11-27T20:21:20.129Z,7.60
2022-11-27T20:23:48.937Z,7.60
2022-11-27T20:26:18.859Z,7.60
2022-11-27T20:28:46.149Z,7.60
2022-11-27T20:31:23.807Z,7.50
2022-11-27T20:33:52.808Z,7.60
2022-11-27T20:36:21.279Z,7.50
2022-11-27T20:38:48.353Z,7.50
2022-11-27T20:41:17.770Z,7.50
2022-11-27T20:43:45.056Z,7.50
2022-11-27T20:46:14.438Z,7.40
2022-11-27T20:48:41.784Z,7.40
2022-11-27T20:51:13.558Z,7.40
2022-11-27T20:53:41.796Z,7.30
2022-11-27T20:56:09.362Z,7.20
2022-11-27T20:58:37.125Z,7.20
2022-11-27T21:01:18.489Z,7.10
2022-11-27T21:03:46.814Z,7.10
2022-11-27T21:06:15.254Z,7.10
2022-11-27T21:08:42.678Z,7.00
2022-11-27T21:11:11.334Z,7.00
2022-11-27T21:13:38.473Z,7.00
2022-11-27T21:16:14.441Z,7.10
2022-11-27T21:18:41.240Z,7.10
2022-11-27T21:21:13.321Z,7.00
2022-11-27T21:23:41.391Z,7.00
2022-11-27T21:26:09.252Z,7.00
2022-11-27T21:28:36.012Z,7.00
2022-11-27T21:31:17.091Z,7.00
2022-11-27T21:33:52.246Z,7.00
2022-11-27T21:36:20.884Z,6.90
2022-11-27T21:38:47.955Z,7.00
2022-11-27T21:41:17.257Z,7.00
2022-11-27T21:43:45.447Z,6.90
2022-11-27T21:46:14.693Z,7.00
2022-11-27T21:48:41.425Z,7.00
2022-11-27T21:51:18.880Z,7.00
2022-11-27T21:53:48.310Z,7.00
2022-11-27T21:56:17.261Z,6.90
2022-11-27T21:58:44.455Z,7.00
2022-11-27T22:01:13.502Z,6.90
2022-11-27T22:03:42.714Z,6.70
2022-11-27T22:06:16.419Z,6.60
2022-11-27T22:08:44.595Z,6.70
2022-11-27T22:11:14.424Z,6.80
2022-11-27T22:13:41.948Z,6.90
2022-11-27T22:16:17.785Z,7.00
2022-11-27T22:18:44.596Z,7.00
2022-11-27T22:21:13.131Z,6.90
2022-11-27T22:23:40.501Z,6.80
2022-11-27T22:26:10.403Z,6.70
2022-11-27T22:28:38.239Z,6.60
2022-11-27T22:31:16.988Z,6.60
2022-11-27T22:33:44.539Z,6.60
2022-11-27T22:36:18.315Z,6.60
2022-11-27T22:38:46.582Z,6.60
2022-11-27T22:41:15.740Z,6.50
2022-11-27T22:43:43.209Z,6.50
2022-11-27T22:46:16.521Z,6.50
2022-11-27T22:48:43.547Z,6.50
2022-11-27T22:51:10.629Z,6.50
2022-11-27T22:53:37.698Z,6.40
2022-11-27T22:56:12.456Z,6.40
2022-11-27T22:58:41.935Z,6.40
2022-11-27T23:01:23.465Z,6.30
2022-11-27T23:03:51.618Z,6.40
2022-11-27T23:06:20.235Z,6.40
2022-11-27T23:08:47.973Z,6.30
2022-11-27T23:11:19.460Z,6.30
2022-11-27T23:13:49.661Z,6.20
2022-11-27T23:16:17.624Z,6.20
2022-11-27T23:18:44.733Z,6.20
2022-11-27T23:21:16.517Z,6.20
2022-11-27T23:23:43.905Z,6.20
2022-11-27T23:26:17.951Z,6.20
2022-11-27T23:28:46.319Z,6.10
2022-11-27T23:31:29.561Z,6.10
2022-11-27T23:33:57.837Z,6.10
2022-11-27T23:36:25.162Z,6.00
2022-11-27T23:38:51.854Z,6.00
2022-11-27T23:41:23.924Z,6.10
2022-11-27T23:43:52.189Z,6.10
2022-11-27T23:46:21.192Z,6.10
2022-11-27T23:48:48.291Z,6.10
2022-11-27T23:51:21.103Z,6.10
2022-11-27T23:53:48.071Z,6.10
2022-11-27T23:56:18.436Z,6.10
2022-11-27T23:58:47.223Z,6.10
